Time;durP1;ratioP1;P1;durP2;ratioP2;P2;SDS_P1;SDS_P2;PMS_P1;PMS_P2;Temp;Humidity;BMP_temperature;BMP_pressure;BME280_temperature;BME280_humidity;BME280_pressure;Samples;Min_cycle;Max_cycle;Signal;HPM_P1;HPM_P2
2023/10/10 00:01:52;;;;;;;21.70;8.70;;;;;;;7.12;65.75;99493.49;108566;1254;93306;-79
2023/10/10 00:04:20;;;;;;;22.60;9.20;;;;;;;7.01;65.81;99495.13;108613;1251;93416;-79
2023/10/10 00:06:49;;;;;;;23.60;10.60;;;;;;;6.94;65.83;99496.69;108668;1251;108176;-79
2023/10/10 00:09:18;;;;;;;21.90;9.10;;;;;;;6.90;65.87;99496.58;108709;1251;95192;-79
2023/10/10 00:11:51;;;;;;;22.10;9.40;;;;;;;6.86;65.93;99498.54;108687;1254;107206;-79
2023/10/10 00:14:19;;;;;;;22.30;8.70;;;;;;;6.82;66.00;99495.38;108687;1251;92920;-80
2023/10/10 00:16:55;;;;;;;25.60;10.80;;;;;;;6.77;65.88;99492.27;108655;1251;93111;-79
2023/10/10 00:19:43;;;;;;;21.70;9.00;;;;;;;6.73;65.89;99493.36;108660;1251;108999;-79
2023/10/10 00:22:12;;;;;;;21.50;8.60;;;;;;;6.66;65.99;99498.64;108594;1251;94364;-79
2023/10/10 00:24:42;;;;;;;22.30;9.20;;;;;;;6.61;65.83;99498.88;108573;1252;106905;-79
2023/10/10 00:27:15;;;;;;;;;;;;;;;6.59;66.06;99502.52;108704;1252;92949;-79
2023/10/10 00:29:46;;;;;;;25.80;9.60;;;;;;;6.54;65.82;99503.64;108759;1252;93362;-79
2023/10/10 00:32:28;;;;;;;19.70;8.50;;;;;;;6.49;65.94;99501.74;108685;1252;108543;-79
2023/10/10 00:34:59;;;;;;;20.60;8.40;;;;;;;6.45;65.98;99504.96;108641;1253;94116;-79
2023/10/10 00:37:34;;;;;;;22.60;9.70;;;;;;;6.40;65.81;99510.63;108637;1251;107170;-79
2023/10/10 00:40:17;;;;;;;21.70;8.30;;;;;;;6.38;66.07;99507.58;108616;1251;93322;-79
2023/10/10 00:42:48;;;;;;;19.70;8.30;;;;;;;6.35;65.94;99507.16;108648;1254;93374;-79
2023/10/10 00:45:21;;;;;;;21.10;8.30;;;;;;;6.26;65.84;99501.45;108638;1252;108021;-79
2023/10/10 00:47:53;;;;;;;20.50;8.60;;;;;;;6.17;65.83;99502.21;108600;1252;95423;-78
2023/10/10 00:50:24;;;;;;;17.00;7.30;;;;;;;6.12;65.82;99498.08;108682;1251;107585;-79
2023/10/10 00:53:00;;;;;;;18.40;8.40;;;;;;;6.06;65.89;99489.02;108599;1251;92952;-79
2023/10/10 00:55:36;;;;;;;20.80;8.20;;;;;;;6.04;65.96;99487.70;108650;1251;92990;-79
2023/10/10 00:58:13;;;;;;;17.80;7.90;;;;;;;6.03;65.97;99491.43;108584;1251;108943;-79
2023/10/10 01:00:54;;;;;;;18.30;7.30;;;;;;;6.00;65.90;99493.67;108616;1251;95765;-79
2023/10/10 01:03:30;;;;;;;18.60;8.00;;;;;;;5.93;65.81;99495.54;108584;1251;109470;-79
2023/10/10 01:06:05;;;;;;;19.00;8.20;;;;;;;5.80;65.71;99498.08;108560;1252;93417;-79
2023/10/10 01:08:58;;;;;;;17.60;6.90;;;;;;;5.69;65.72;99500.38;108700;1251;92889;-79
2023/10/10 01:11:29;;;;;;;17.70;7.00;;;;;;;5.60;65.73;99507.08;108646;1251;107970;-79
2023/10/10 01:14:04;;;;;;;12.20;5.90;;;;;;;5.60;66.00;99503.23;108716;1251;94672;-79
2023/10/10 01:16:35;;;;;;;22.40;8.50;;;;;;;5.58;65.85;99510.86;108590;1251;107892;-79
2023/10/10 01:19:05;;;;;;;24.40;9.70;;;;;;;5.56;65.76;99515.56;108616;1251;94267;-79
2023/10/10 01:21:42;;;;;;;23.60;8.90;;;;;;;5.52;65.86;99515.36;108526;1251;94302;-79
2023/10/10 01:24:15;;;;;;;51.40;12.70;;;;;;;5.45;65.86;99517.96;108557;1251;109981;-79
2023/10/10 01:26:50;;;;;;;45.10;12.40;;;;;;;5.37;65.88;99521.11;108692;1251;95425;-79
2023/10/10 01:29:26;;;;;;;39.80;10.80;;;;;;;5.30;66.08;99519.16;108621;1253;107356;-79
2023/10/10 01:31:58;;;;;;;31.90;12.00;;;;;;;5.31;66.13;99517.67;108726;1251;94466;-79
2023/10/10 01:34:45;;;;;;;33.60;10.90;;;;;;;5.34;66.17;99517.57;108581;1251;94730;-79
2023/10/10 01:37:20;;;;;;;32.80;10.40;;;;;;;5.36;66.08;99512.02;108669;1251;109718;-79
2023/10/10 01:40:14;;;;;;;29.50;10.70;;;;;;;5.36;66.17;99511.46;108635;1251;96066;-78
2023/10/10 01:42:53;;;;;;;35.10;9.60;;;;;;;5.36;66.20;99509.54;108682;1251;107602;-79
2023/10/10 01:45:27;;;;;;;29.50;9.50;;;;;;;5.35;66.08;99509.60;108527;1252;94405;-79
2023/10/10 01:48:11;;;;;;;28.10;9.40;;;;;;;5.32;66.09;99510.59;108705;1251;95179;-79
2023/10/10 01:50:39;;;;;;;25.80;9.70;;;;;;;5.30;66.13;99506.30;108674;1251;109603;-79
2023/10/10 01:53:09;;;;;;;25.20;10.00;;;;;;;5.29;66.15;99505.83;108568;1251;95710;-79
2023/10/10 01:55:38;;;;;;;24.80;8.80;;;;;;;5.26;66.10;99507.88;108585;1251;107606;-78
2023/10/10 01:58:11;;;;;;;26.20;10.00;;;;;;;5.26;66.07;99511.41;108583;1251;94539;-79
2023/10/10 02:00:46;;;;;;;22.20;10.10;;;;;;;5.22;66.23;99511.40;108598;1251;94507;-79
2023/10/10 02:03:18;;;;;;;26.70;9.00;;;;;;;5.16;66.10;99514.65;108594;1251;109680;-78
2023/10/10 02:05:50;;;;;;;22.90;8.60;;;;;;;5.12;66.20;99513.23;108553;1251;97365;-78
2023/10/10 02:08:26;;;;;;;24.70;9.60;;;;;;;5.06;66.07;99516.30;108624;1251;106662;-79
2023/10/10 02:10:55;;;;;;;22.30;8.60;;;;;;;5.05;66.11;99514.94;108712;1251;94284;-79
2023/10/10 02:13:27;;;;;;;24.50;9.00;;;;;;;5.04;66.08;99519.20;108620;1251;94673;-79
2023/10/10 02:15:56;;;;;;;27.10;9.50;;;;;;;5.01;66.15;99523.91;108588;1251;110400;-79
2023/10/10 02:18:39;;;;;;;27.70;9.70;;;;;;;4.98;66.11;99526.64;108641;1251;95218;-79
2023/10/10 02:21:17;;;;;;;24.20;10.40;;;;;;;4.97;66.20;99531.08;108690;1251;106722;-79
2023/10/10 02:23:53;;;;;;;21.70;9.70;;;;;;;5.00;66.17;99533.44;108638;1251;94445;-79
2023/10/10 02:26:35;;;;;;;24.10;10.50;;;;;;;5.02;66.15;99533.89;108712;1250;94400;-79
2023/10/10 02:30:05;;;;;;;28.20;14.40;;;;;;;5.02;66.16;99532.30;108569;1251;109264;-79
2023/10/10 02:35:00;;;;;;;29.00;13.70;;;;;;;4.97;66.15;99537.59;108682;1251;107737;-78
2023/10/10 02:40:15;;;;;;;24.60;11.00;;;;;;;4.95;66.27;99544.01;108686;1254;94682;-78
2023/10/10 02:43:10;;;;;;;25.70;10.60;;;;;;;4.89;66.29;99544.95;108813;1251;108871;-79
2023/10/10 02:45:44;;;;;;;24.80;10.10;;;;;;;4.79;66.37;99542.58;108730;1251;95294;-79
2023/10/10 02:48:20;;;;;;;28.50;10.50;;;;;;;4.79;66.44;99542.73;108532;1251;108793;-79
2023/10/10 02:50:51;;;;;;;24.80;9.80;;;;;;;4.81;66.35;99545.48;108665;1251;94696;-78
2023/10/10 02:53:19;;;;;;;24.80;10.50;;;;;;;4.80;66.34;99553.40;108626;1251;94435;-79
2023/10/10 02:56:01;;;;;;;25.50;10.20;;;;;;;4.79;66.41;99553.46;108523;1251;109962;-78
2023/10/10 02:58:38;;;;;;;22.00;9.60;;;;;;;4.76;66.32;99551.61;108616;1251;96175;-79
2023/10/10 03:01:18;;;;;;;24.40;9.80;;;;;;;4.75;66.39;99552.02;108696;1250;107650;-79
2023/10/10 03:03:47;;;;;;;24.00;9.90;;;;;;;4.75;66.34;99549.20;108623;1251;94350;-79
2023/10/10 03:06:28;;;;;;;25.70;10.50;;;;;;;4.77;66.37;99554.73;108612;1251;94643;-78
2023/10/10 03:12:04;;;;;;;26.30;11.00;;;;;;;4.73;66.45;99555.79;108494;1251;96111;-78
2023/10/10 03:14:35;;;;;;;27.90;11.40;;;;;;;4.71;66.55;99558.50;108517;1254;108544;-79
2023/10/10 03:17:05;;;;;;;28.20;11.40;;;;;;;4.69;66.44;99566.16;108493;1251;94304;-79
2023/10/10 03:19:41;;;;;;;28.80;10.20;;;;;;;4.64;66.58;99568.47;108607;1251;94462;-79
2023/10/10 03:28:05;;;;;;;30.30;10.90;;;;;;;4.37;66.68;99559.86;108436;1251;108161;-79
2023/10/10 03:30:50;;;;;;;26.70;11.10;;;;;;;4.29;66.63;99558.43;108425;1251;94580;-79
2023/10/10 03:33:38;;;;;;;25.60;10.80;;;;;;;4.23;66.61;99564.44;108610;1251;94297;-78
2023/10/10 05:29:00;;;;;;;;;;;;;;;;;;;;;
2023/10/10 06:17:40;;;;;;;10.00;4.60;;;;;;;4.88;67.20;99637.23;105144;1286;648849;-91
2023/10/10 06:23:49;;;;;;;30.40;21.80;;;;;;;5.10;67.65;99640.75;106901;1270;94331;-91
2023/10/10 06:27:11;;;;;;;;;;;;;;;;;;;;;
2023/10/10 06:34:09;;;;;;;;;;;;;;;;;;;;;
2023/10/10 06:40:39;;;;;;;;;;;;;;;;;;;;;
2023/10/10 06:46:55;;;;;;;;;;;;;;;;;;;;;
2023/10/10 06:50:10;;;;;;;11.40;4.90;;;;;;;5.56;68.37;99654.73;106337;1279;108976;-91
2023/10/10 06:57:04;;;;;;;15.30;6.80;;;;;;;5.76;68.53;99665.46;106191;1276;95132;-90
2023/10/10 07:03:49;;;;;;;;;;;;;;;;;;;;;
2023/10/10 07:23:10;;;;;;;12.90;4.90;;;;;;;6.24;69.05;99665.70;106024;1278;109056;-92
2023/10/10 07:35:55;;;;;;;7.60;3.90;;;;;;;6.64;68.99;99672.83;106303;1275;94544;-92
2023/10/10 07:48:56;;;;;;;;;;;;;;;;;;;;;
2023/10/10 07:52:37;;;;;;;;;;;;;;;;;;;;;
2023/10/10 08:02:02;;;;;;;8.30;4.20;;;;;;;7.35;69.38;99671.07;105410;1282;95283;-93
2023/10/10 08:08:48;;;;;;;;;;;;;;;;;;;;;
2023/10/10 08:17:39;;;;;;;6.40;3.50;;;;;;;7.68;69.25;99665.71;105520;1279;95221;-90
2023/10/10 10:41:55;;;;;;;4.40;2.70;;;;;;;9.91;67.98;99643.13;105090;1278;95398;-77
2023/10/10 10:44:47;;;;;;;4.60;2.60;;;;;;;9.91;67.84;99639.40;105532;1262;106973;-78
2023/10/10 10:47:57;;;;;;;;;;;;;;;;;;;;;
2023/10/10 10:52:11;;;;;;;7.10;3.10;;;;;;;10.02;67.87;99633.81;107334;1240;107556;-78
